createdAt,value
2022-10-19T00:01:15.270Z,97.74
2022-10-19T00:03:44.540Z,98.00
2022-10-19T00:06:20.025Z,98.61
2022-10-19T00:08:47.145Z,99.02
2022-10-19T00:11:14.115Z,99.18
2022-10-19T00:13:41.197Z,99.49
2022-10-19T00:16:14.358Z,99.08
2022-10-19T00:18:43.649Z,98.96
2022-10-19T00:21:13.722Z,98.91
2022-10-19T00:23:40.926Z,98.56
2022-10-19T00:26:08.267Z,98.25
2022-10-19T00:28:35.156Z,98.28
2022-10-19T00:31:07.488Z,97.79
2022-10-19T00:33:34.416Z,97.66
2022-10-19T00:36:01.931Z,97.64
2022-10-19T00:38:28.798Z,97.83
2022-10-19T00:40:55.834Z,97.26
2022-10-19T00:43:28.100Z,97.33
2022-10-19T00:45:55.145Z,97.06
2022-10-19T00:48:28.152Z,97.38
2022-10-19T00:50:58.674Z,97.91
2022-10-19T00:53:28.903Z,97.64
2022-10-19T00:55:57.376Z,97.65
2022-10-19T00:58:24.595Z,97.48
2022-10-19T01:00:51.634Z,97.26
2022-10-19T01:03:18.746Z,97.67
2022-10-19T01:05:46.055Z,98.03
2022-10-19T01:08:13.775Z,98.63
2022-10-19T01:11:06.660Z,98.58
2022-10-19T01:13:54.956Z,98.53
2022-10-19T01:16:31.088Z,98.34
2022-10-19T01:19:30.179Z,98.68
2022-10-19T01:22:14.174Z,98.99
2022-10-19T01:25:10.888Z,99.55
2022-10-19T01:28:10.097Z,99.53
2022-10-19T01:30:50.181Z,99.59
2022-10-19T01:33:31.122Z,99.31
2022-10-19T01:36:13.039Z,99.31
2022-10-19T01:39:01.092Z,99.87
2022-10-19T01:41:48.837Z,99.63
2022-10-19T01:44:44.870Z,99.10
2022-10-19T01:47:29.419Z,98.80
2022-10-19T01:50:15.448Z,97.95
2022-10-19T01:52:43.307Z,98.01
2022-10-19T01:55:14.088Z,97.88
2022-10-19T01:57:48.011Z,97.86
2022-10-19T02:00:17.139Z,98.12
2022-10-19T02:02:48.405Z,98.52
2022-10-19T02:05:17.385Z,98.34
2022-10-19T02:07:48.555Z,98.52
2022-10-19T02:12:43.441Z,98.72
2022-10-19T02:15:14.470Z,98.45
2022-10-19T02:17:46.947Z,99.21
2022-10-19T02:20:15.133Z,99.12
2022-10-19T02:22:42.738Z,98.93
2022-10-19T02:25:11.055Z,98.34
2022-10-19T02:27:42.147Z,98.39
2022-10-19T02:30:11.169Z,99.01
2022-10-19T02:32:38.626Z,98.75
2022-10-19T02:35:06.249Z,98.00
2022-10-19T02:37:33.599Z,97.76
2022-10-19T02:40:01.266Z,97.67
2022-10-19T02:42:54.598Z,97.67
2022-10-19T02:45:30.035Z,98.62
2022-10-19T02:48:09.058Z,99.25
2022-10-19T02:50:36.389Z,98.71
2022-10-19T02:53:03.347Z,98.82
2022-10-19T02:55:31.543Z,99.22
2022-10-19T02:57:58.477Z,99.61
2022-10-19T03:00:25.410Z,99.27
2022-10-19T03:02:52.336Z,99.23
2022-10-19T03:05:19.293Z,99.24
2022-10-19T03:07:46.971Z,98.97
2022-10-19T03:10:14.003Z,99.18
2022-10-19T03:12:40.781Z,99.31
2022-10-19T03:15:08.452Z,99.31
2022-10-19T03:17:36.043Z,98.90
2022-10-19T03:20:03.512Z,99.50
2022-10-19T03:22:30.890Z,99.85
2022-10-19T03:24:57.813Z,99.99
2022-10-19T03:27:25.031Z,100.00
2022-10-19T03:29:52.048Z,100.00
2022-10-19T03:32:19.063Z,100.00
2022-10-19T03:34:45.989Z,100.00
2022-10-19T03:37:15.317Z,100.00
2022-10-19T03:39:42.290Z,100.00
2022-10-19T03:42:09.142Z,100.00
2022-10-19T03:44:36.284Z,100.00
2022-10-19T03:47:03.346Z,100.00
2022-10-19T03:49:30.170Z,100.00
2022-10-19T03:51:57.193Z,100.00
2022-10-19T03:54:27.258Z,100.00
2022-10-19T03:56:54.581Z,99.54
2022-10-19T03:59:21.954Z,99.42
2022-10-19T04:01:48.964Z,99.49
2022-10-19T04:04:18.244Z,99.48
2022-10-19T04:06:47.838Z,99.56
2022-10-19T04:09:18.436Z,99.00
2022-10-19T04:11:45.940Z,98.91
2022-10-19T04:14:26.884Z,98.11
2022-10-19T04:17:03.821Z,98.38
2022-10-19T04:19:31.857Z,98.78
2022-10-19T04:21:58.868Z,98.94
2022-10-19T04:24:25.968Z,98.87
2022-10-19T04:26:55.066Z,98.63
2022-10-19T04:29:26.460Z,98.41
2022-10-19T04:31:56.701Z,98.20
2022-10-19T04:34:24.429Z,98.25
2022-10-19T04:36:53.695Z,97.97
2022-10-19T04:39:23.565Z,97.73
2022-10-19T04:41:50.746Z,97.93
2022-10-19T04:44:17.874Z,98.01
2022-10-19T04:46:44.923Z,97.65
2022-10-19T04:49:14.133Z,98.02
2022-10-19T04:51:45.031Z,98.51
2022-10-19T04:54:11.902Z,99.43
2022-10-19T04:56:39.921Z,99.44
2022-10-19T04:59:07.585Z,99.46
2022-10-19T05:01:34.604Z,99.44
2022-10-19T05:04:02.791Z,99.01
2022-10-19T05:06:31.368Z,98.80
2022-10-19T05:08:58.909Z,98.60
2022-10-19T05:11:26.590Z,98.47
2022-10-19T05:13:53.734Z,98.76
2022-10-19T05:16:22.582Z,99.54
2022-10-19T05:18:51.546Z,100.00
2022-10-19T05:21:20.674Z,100.00
2022-10-19T05:23:50.665Z,100.00
2022-10-19T05:26:20.141Z,100.00
2022-10-19T05:28:56.312Z,100.00
2022-10-19T05:31:26.622Z,100.00
2022-10-19T05:33:54.261Z,100.00
2022-10-19T05:36:26.413Z,100.00
2022-10-19T05:38:57.818Z,100.00
2022-10-19T05:41:25.489Z,100.00
2022-10-19T05:43:58.342Z,100.00
2022-10-19T05:46:27.429Z,100.00
2022-10-19T05:48:58.992Z,100.00
2022-10-19T05:51:27.467Z,100.00
2022-10-19T05:53:55.377Z,100.00
2022-10-19T05:56:26.081Z,97.94
2022-10-19T05:58:53.577Z,96.02
2022-10-19T06:01:20.713Z,93.72
2022-10-19T06:03:51.460Z,93.24
2022-10-19T06:06:19.063Z,92.59
2022-10-19T06:08:46.422Z,92.41
2022-10-19T06:11:16.242Z,92.23
2022-10-19T06:13:44.524Z,93.16
2022-10-19T06:16:14.241Z,93.34
2022-10-19T06:18:42.907Z,92.84
2022-10-19T06:21:16.069Z,93.12
2022-10-19T06:23:43.298Z,92.16
2022-10-19T06:26:13.585Z,91.83
2022-10-19T06:28:42.995Z,92.34
2022-10-19T06:31:11.197Z,92.13
2022-10-19T06:33:40.417Z,91.99
2022-10-19T06:36:13.925Z,91.32
2022-10-19T06:38:41.991Z,92.15
2022-10-19T06:41:09.976Z,91.87
2022-10-19T06:43:37.388Z,91.59
2022-10-19T06:46:09.811Z,91.71
2022-10-19T06:48:36.928Z,91.79
2022-10-19T06:51:09.350Z,91.92
2022-10-19T06:53:37.297Z,92.31
2022-10-19T06:56:06.698Z,92.28
2022-10-19T06:58:40.549Z,92.08
2022-10-19T07:01:08.744Z,92.16
2022-10-19T07:03:36.682Z,92.07
2022-10-19T07:06:09.233Z,91.65
2022-10-19T07:08:38.115Z,91.35
2022-10-19T07:11:25.291Z,90.90
2022-10-19T07:13:53.642Z,90.50
2022-10-19T07:16:21.793Z,90.47
2022-10-19T07:18:53.481Z,90.13
2022-10-19T07:21:23.326Z,89.57
2022-10-19T07:23:50.867Z,89.12
2022-10-19T07:26:24.884Z,88.51
2022-10-19T07:28:52.370Z,88.11
2022-10-19T07:31:21.858Z,87.56
2022-10-19T07:34:01.054Z,86.64
2022-10-19T07:36:30.683Z,85.70
2022-10-19T07:38:57.782Z,85.09
2022-10-19T07:41:26.630Z,84.58
2022-10-19T07:43:54.406Z,82.41
2022-10-19T07:46:25.409Z,80.87
2022-10-19T07:48:53.007Z,80.36
2022-10-19T07:51:21.123Z,78.42
2022-10-19T07:53:48.595Z,78.07
2022-10-19T07:56:21.753Z,77.52
2022-10-19T07:58:50.549Z,76.20
2022-10-19T08:01:19.717Z,75.11
2022-10-19T08:06:35.224Z,73.87
2022-10-19T08:09:02.253Z,73.35
2022-10-19T08:11:32.624Z,71.92
2022-10-19T08:14:02.846Z,71.39
2022-10-19T08:16:44.413Z,70.38
2022-10-19T08:19:12.644Z,70.24
2022-10-19T08:21:41.854Z,69.84
2022-10-19T08:24:09.639Z,69.01
2022-10-19T08:26:39.047Z,68.27
2022-10-19T08:29:13.535Z,68.03
2022-10-19T08:31:42.440Z,67.41
2022-10-19T08:34:09.851Z,66.60
2022-10-19T08:36:37.369Z,66.64
2022-10-19T08:39:06.512Z,64.60
2022-10-19T08:42:03.670Z,64.67
2022-10-19T08:44:52.234Z,64.51
2022-10-19T08:47:42.546Z,63.82
2022-10-19T08:50:26.989Z,62.86
2022-10-19T08:53:26.136Z,61.78
2022-10-19T08:56:05.702Z,60.92
2022-10-19T08:58:50.643Z,59.70
2022-10-19T09:01:32.684Z,56.67
2022-10-19T09:04:23.781Z,56.48
2022-10-19T09:07:27.561Z,55.84
2022-10-19T09:10:03.052Z,54.30
2022-10-19T09:12:55.137Z,53.92
2022-10-19T09:15:45.079Z,54.61
2022-10-19T09:18:33.373Z,55.07
2022-10-19T09:21:30.967Z,54.60
2022-10-19T09:24:16.223Z,54.81
2022-10-19T09:26:52.108Z,54.91
2022-10-19T09:29:25.364Z,55.55
2022-10-19T09:34:27.425Z,53.75
2022-10-19T09:36:58.138Z,53.86
2022-10-19T09:39:29.491Z,53.14
2022-10-19T09:42:00.497Z,53.94
2022-10-19T09:44:28.059Z,52.44
2022-10-19T09:47:16.299Z,52.61
2022-10-19T09:49:48.902Z,52.11
2022-10-19T09:52:40.035Z,52.33
2022-10-19T09:55:36.557Z,51.83
2022-10-19T09:58:18.688Z,51.38
2022-10-19T10:00:56.863Z,51.06
2022-10-19T10:03:43.912Z,50.55
2022-10-19T10:06:15.742Z,50.37
2022-10-19T10:08:52.825Z,50.11
2022-10-19T10:11:30.425Z,49.79
2022-10-19T10:14:07.509Z,49.29
2022-10-19T10:16:37.266Z,49.87
2022-10-19T10:19:08.310Z,49.22
2022-10-19T10:21:50.474Z,49.38
2022-10-19T10:24:20.037Z,48.96
2022-10-19T10:26:50.857Z,44.18
2022-10-19T10:29:32.790Z,41.22
2022-10-19T10:32:06.257Z,40.29
2022-10-19T10:34:46.356Z,40.00
2022-10-19T10:37:40.481Z,41.45
2022-10-19T10:40:26.916Z,40.83
2022-10-19T10:42:57.554Z,40.92
2022-10-19T10:45:32.671Z,40.46
2022-10-19T10:48:26.153Z,40.03
2022-10-19T10:50:53.326Z,37.80
2022-10-19T10:53:33.251Z,38.87
2022-10-19T10:56:00.236Z,37.66
2022-10-19T10:58:36.083Z,36.46
2022-10-19T11:01:08.052Z,36.28
2022-10-19T11:03:39.111Z,35.64
2022-10-19T11:06:09.225Z,35.98
2022-10-19T11:08:46.275Z,33.41
2022-10-19T11:11:48.935Z,33.60
2022-10-19T11:14:16.194Z,33.80
2022-10-19T11:16:46.219Z,33.10
2022-10-19T11:19:27.442Z,33.30
2022-10-19T11:22:06.534Z,32.39
2022-10-19T11:24:51.679Z,33.00
2022-10-19T11:27:30.757Z,33.09
2022-10-19T11:29:57.564Z,33.41
2022-10-19T11:32:49.044Z,31.87
2022-10-19T11:35:24.083Z,33.28
2022-10-19T11:38:20.133Z,33.48
2022-10-19T11:41:18.149Z,34.54
2022-10-19T11:44:21.063Z,33.18
2022-10-19T11:46:57.661Z,34.14
2022-10-19T11:50:12.045Z,33.24
2022-10-19T11:52:53.195Z,34.45
2022-10-19T11:55:51.302Z,32.28
2022-10-19T11:58:34.584Z,32.13
2022-10-19T12:01:25.561Z,32.57
2022-10-19T12:04:20.465Z,32.50
2022-10-19T12:06:50.630Z,32.14
2022-10-19T12:09:28.225Z,30.89
2022-10-19T12:12:22.266Z,32.00
2022-10-19T12:14:59.210Z,32.02
2022-10-19T12:17:31.376Z,32.25
2022-10-19T12:20:39.871Z,32.47
2022-10-19T12:23:38.631Z,32.14
2022-10-19T12:26:10.056Z,32.46
2022-10-19T12:28:41.924Z,33.00
2022-10-19T12:31:10.017Z,32.87
2022-10-19T12:33:37.032Z,33.95
2022-10-19T12:36:07.083Z,33.19
2022-10-19T12:39:00.849Z,33.98
2022-10-19T12:41:27.816Z,33.48
2022-10-19T12:44:06.709Z,34.05
2022-10-19T12:46:52.980Z,34.77
2022-10-19T12:49:27.237Z,35.17
2022-10-19T12:51:56.415Z,35.28
2022-10-19T12:54:26.038Z,35.61
2022-10-19T12:56:55.921Z,35.88
2022-10-19T12:59:26.192Z,36.07
2022-10-19T13:01:55.095Z,36.49
2022-10-19T13:04:25.878Z,36.33
2022-10-19T13:06:58.976Z,37.05
2022-10-19T13:09:42.116Z,37.57
2022-10-19T13:12:22.186Z,37.10
2022-10-19T13:15:04.303Z,37.04
2022-10-19T13:17:35.217Z,37.42
2022-10-19T13:20:15.178Z,37.45
2022-10-19T13:23:13.464Z,37.53
2022-10-19T13:25:41.633Z,37.54
2022-10-19T13:28:11.199Z,37.79
2022-10-19T13:30:39.044Z,36.44
2022-10-19T13:33:25.327Z,36.79
2022-10-19T13:36:08.158Z,37.53
2022-10-19T13:39:00.234Z,37.97
2022-10-19T13:41:48.521Z,37.33
2022-10-19T13:44:18.599Z,38.25
2022-10-19T13:47:34.329Z,38.10
2022-10-19T13:50:21.941Z,38.60
2022-10-19T13:53:07.076Z,38.29
2022-10-19T13:55:42.171Z,38.54
2022-10-19T13:58:21.251Z,38.55
2022-10-19T14:00:54.227Z,38.64
2022-10-19T14:03:33.863Z,38.88
2022-10-19T14:06:28.621Z,39.03
2022-10-19T14:09:29.106Z,39.03
2022-10-19T14:12:07.096Z,39.18
2022-10-19T14:14:45.152Z,39.10
2022-10-19T14:17:32.475Z,39.52
2022-10-19T14:20:00.747Z,39.39
2022-10-19T14:22:34.128Z,39.96
2022-10-19T14:25:07.447Z,40.16
2022-10-19T14:27:35.493Z,39.56
2022-10-19T14:30:03.170Z,39.19
2022-10-19T14:32:34.364Z,38.92
2022-10-19T14:37:44.180Z,39.15
2022-10-19T14:40:17.230Z,39.24
2022-10-19T14:42:46.532Z,39.06
2022-10-19T14:45:21.367Z,39.16
2022-10-19T14:48:06.181Z,38.95
2022-10-19T14:50:40.815Z,38.83
2022-10-19T14:53:36.877Z,38.67
2022-10-19T14:56:14.204Z,38.84
2022-10-19T14:59:02.649Z,39.12
2022-10-19T15:01:30.482Z,39.80
2022-10-19T15:03:57.680Z,40.11
2022-10-19T15:06:29.996Z,41.16
2022-10-19T15:09:01.928Z,41.13
2022-10-19T15:11:38.111Z,41.53
2022-10-19T15:14:14.431Z,42.35
2022-10-19T15:16:52.073Z,42.71
2022-10-19T15:19:25.386Z,43.92
2022-10-19T15:22:27.064Z,44.48
2022-10-19T15:25:25.885Z,45.07
2022-10-19T15:27:54.482Z,45.56
2022-10-19T15:30:29.638Z,45.90
2022-10-19T15:33:10.675Z,46.81
2022-10-19T15:35:40.401Z,48.15
2022-10-19T15:38:11.524Z,49.40
2022-10-19T15:40:41.447Z,50.37
2022-10-19T15:43:35.010Z,50.09
2022-10-19T15:46:07.452Z,51.06
2022-10-19T15:48:40.466Z,51.97
2022-10-19T15:51:26.900Z,53.06
2022-10-19T15:54:02.175Z,53.86
2022-10-19T15:56:32.183Z,54.93
2022-10-19T15:59:02.161Z,55.32
2022-10-19T16:01:32.839Z,56.12
2022-10-19T16:04:00.054Z,56.43
2022-10-19T16:06:29.194Z,56.93
2022-10-19T16:08:58.705Z,56.92
2022-10-19T16:11:27.193Z,57.41
2022-10-19T16:13:54.100Z,58.09
2022-10-19T16:16:32.718Z,58.23
2022-10-19T16:19:00.044Z,58.83
2022-10-19T16:21:34.136Z,59.38
2022-10-19T16:24:01.359Z,59.62
2022-10-19T16:26:29.254Z,59.90
2022-10-19T16:28:56.388Z,59.85
2022-10-19T16:31:24.993Z,60.25
2022-10-19T16:33:52.039Z,60.45
2022-10-19T16:36:20.671Z,60.51
2022-10-19T16:38:48.279Z,60.92
2022-10-19T16:41:16.904Z,61.65
2022-10-19T16:43:44.385Z,62.15
2022-10-19T16:46:11.596Z,62.50
2022-10-19T16:48:38.611Z,62.93
2022-10-19T16:51:05.448Z,63.31
2022-10-19T16:53:32.646Z,63.65
2022-10-19T16:56:18.284Z,63.67
2022-10-19T16:58:45.472Z,64.03
2022-10-19T17:01:18.145Z,64.33
2022-10-19T17:03:46.803Z,64.39
2022-10-19T17:06:14.815Z,64.59
2022-10-19T17:09:23.332Z,64.77
2022-10-19T17:11:32.795Z,65.21
2022-10-19T17:14:03.211Z,65.24
2022-10-19T17:16:32.033Z,65.55
2022-10-19T17:19:00.922Z,65.60
2022-10-19T17:21:30.483Z,65.59
2022-10-19T17:24:00.110Z,65.45
2022-10-19T17:26:34.065Z,66.04
2022-10-19T17:29:01.562Z,67.08
2022-10-19T17:31:28.819Z,67.39
2022-10-19T17:33:56.350Z,68.04
2022-10-19T17:36:26.581Z,67.93
2022-10-19T17:38:55.096Z,68.04
2022-10-19T17:41:23.015Z,68.20
2022-10-19T17:43:54.230Z,67.90
2022-10-19T17:46:24.142Z,67.93
2022-10-19T17:48:51.561Z,68.59
2022-10-19T17:51:23.649Z,68.54
2022-10-19T17:53:51.276Z,68.94
2022-10-19T17:56:20.848Z,68.67
2022-10-19T17:58:49.136Z,68.57
2022-10-19T18:01:18.246Z,69.08
2022-10-19T18:03:45.518Z,69.03
2022-10-19T18:06:15.241Z,68.87
2022-10-19T18:08:44.852Z,68.38
2022-10-19T18:11:40.395Z,68.21
2022-10-19T18:14:08.993Z,68.90
2022-10-19T18:16:45.691Z,69.13
2022-10-19T18:19:16.335Z,69.41
2022-10-19T18:22:03.582Z,69.72
2022-10-19T18:24:30.648Z,70.72
2022-10-19T18:26:57.755Z,71.15
2022-10-19T18:29:26.595Z,71.31
2022-10-19T18:31:53.868Z,71.44
2022-10-19T18:34:24.135Z,71.56
2022-10-19T18:36:52.010Z,71.84
2022-10-19T18:39:19.520Z,71.76
2022-10-19T18:41:46.449Z,72.52
2022-10-19T18:44:13.878Z,72.62
2022-10-19T18:46:41.086Z,72.41
2022-10-19T18:49:09.250Z,71.79
2022-10-19T18:51:37.043Z,71.57
2022-10-19T18:54:04.457Z,72.10
2022-10-19T18:56:33.622Z,72.53
2022-10-19T18:59:00.708Z,72.95
2022-10-19T19:01:29.184Z,72.80
2022-10-19T19:04:04.495Z,73.42
2022-10-19T19:06:33.183Z,73.59
2022-10-19T19:09:01.349Z,74.39
2022-10-19T19:11:34.293Z,74.73
2022-10-19T19:14:07.880Z,74.31
2022-10-19T19:16:37.671Z,74.73
2022-10-19T19:19:05.743Z,75.39
2022-10-19T19:21:33.365Z,75.77
2022-10-19T19:24:03.098Z,76.11
2022-10-19T19:26:33.267Z,76.48
2022-10-19T19:29:01.277Z,76.23
2022-10-19T19:31:28.601Z,76.14
2022-10-19T19:33:55.660Z,75.80
2022-10-19T19:36:22.674Z,75.63
2022-10-19T19:38:51.694Z,75.64
2022-10-19T19:41:18.508Z,75.61
2022-10-19T19:43:45.813Z,75.55
2022-10-19T19:46:15.690Z,75.57
2022-10-19T19:48:45.040Z,75.80
2022-10-19T19:51:17.155Z,76.24
2022-10-19T19:53:45.074Z,76.15
2022-10-19T19:56:13.580Z,76.26
2022-10-19T19:58:41.608Z,76.09
2022-10-19T20:01:16.948Z,76.39
2022-10-19T20:03:45.299Z,76.79
2022-10-19T20:06:13.065Z,77.02
2022-10-19T20:08:40.240Z,77.03
2022-10-19T20:11:13.518Z,77.04
2022-10-19T20:13:40.651Z,76.96
2022-10-19T20:16:09.875Z,76.94
2022-10-19T20:18:36.926Z,77.13
2022-10-19T20:21:04.730Z,77.50
2022-10-19T20:23:31.746Z,77.41
2022-10-19T20:25:59.078Z,77.30
2022-10-19T20:28:27.347Z,77.82
2022-10-19T20:31:06.212Z,77.94
2022-10-19T20:33:34.854Z,78.02
2022-10-19T20:36:06.544Z,77.87
2022-10-19T20:38:36.697Z,77.30
2022-10-19T20:41:07.925Z,76.27
2022-10-19T20:43:38.918Z,76.38
2022-10-19T20:46:13.540Z,77.60
2022-10-19T20:48:41.663Z,78.43
2022-10-19T20:51:16.443Z,78.98
2022-10-19T20:53:46.512Z,79.13
2022-10-19T20:56:16.028Z,79.36
2022-10-19T20:58:43.920Z,79.01
2022-10-19T21:01:17.102Z,79.23
2022-10-19T21:03:56.155Z,79.22
2022-10-19T21:06:26.100Z,79.30
2022-10-19T21:08:53.673Z,79.16
2022-10-19T21:11:23.452Z,79.43
2022-10-19T21:13:54.464Z,79.47
2022-10-19T21:16:23.667Z,79.82
2022-10-19T21:18:51.052Z,80.12
2022-10-19T21:21:19.707Z,80.51
2022-10-19T21:23:48.937Z,80.24
2022-10-19T21:26:17.315Z,80.18
2022-10-19T21:28:48.826Z,79.88
2022-10-19T21:31:17.259Z,79.74
2022-10-19T21:33:44.900Z,79.46
2022-10-19T21:36:13.559Z,79.21
2022-10-19T21:38:41.630Z,79.22
2022-10-19T21:41:13.143Z,79.78
2022-10-19T21:43:40.331Z,80.06
2022-10-19T21:46:09.427Z,80.20
2022-10-19T21:48:36.811Z,80.11
2022-10-19T21:51:31.358Z,80.64
2022-10-19T21:53:58.417Z,80.40
2022-10-19T21:56:25.584Z,80.13
2022-10-19T21:58:53.914Z,80.44
2022-10-19T22:01:26.317Z,80.12
2022-10-19T22:04:02.022Z,80.36
2022-10-19T22:06:31.104Z,80.41
2022-10-19T22:08:58.901Z,80.97
2022-10-19T22:11:27.062Z,81.22
2022-10-19T22:13:55.863Z,81.20
2022-10-19T22:16:23.141Z,81.10
2022-10-19T22:18:51.002Z,80.97
2022-10-19T22:21:23.658Z,81.07
2022-10-19T22:24:00.568Z,81.66
2022-10-19T22:26:33.256Z,81.44
2022-10-19T22:29:02.154Z,81.26
2022-10-19T22:31:31.120Z,80.72
2022-10-19T22:34:00.397Z,80.60
2022-10-19T22:36:27.895Z,81.00
2022-10-19T22:38:55.188Z,81.21
2022-10-19T22:41:22.369Z,81.42
2022-10-19T22:43:49.278Z,81.19
2022-10-19T22:46:16.187Z,81.13
2022-10-19T22:48:43.087Z,81.16
2022-10-19T22:51:10.169Z,81.68
2022-10-19T22:53:37.381Z,81.29
2022-10-19T22:56:05.000Z,81.44
2022-10-19T22:58:31.931Z,81.70
2022-10-19T23:01:08.271Z,81.83
2022-10-19T23:03:35.467Z,81.59
2022-10-19T23:06:02.382Z,81.57
2022-10-19T23:08:29.377Z,81.58
2022-10-19T23:10:56.465Z,81.21
2022-10-19T23:13:23.581Z,80.83
2022-10-19T23:15:53.626Z,81.54
2022-10-19T23:18:20.673Z,81.77
2022-10-19T23:21:02.070Z,81.67
2022-10-19T23:23:29.773Z,82.31
2022-10-19T23:26:05.077Z,83.10
2022-10-19T23:28:33.590Z,82.52
2022-10-19T23:31:08.661Z,82.37
2022-10-19T23:33:36.383Z,82.11
2022-10-19T23:36:06.751Z,82.90
2022-10-19T23:38:34.499Z,83.44
2022-10-19T23:41:01.847Z,83.50
2022-10-19T23:43:29.104Z,83.90
2022-10-19T23:45:56.385Z,84.04
2022-10-19T23:48:23.320Z,83.97
2022-10-19T23:51:11.021Z,83.84
2022-10-19T23:53:41.358Z,83.60
2022-10-19T23:56:29.523Z,82.91
2022-10-19T23:58:57.136Z,82.45
